Time;durP1;ratioP1;P1;durP2;ratioP2;P2;SDS_P1;SDS_P2;PMS_P1;PMS_P2;Temp;Humidity;BMP_temperature;BMP_pressure;BME280_temperature;BME280_humidity;BME280_pressure;Samples;Min_cycle;Max_cycle;Signal;HPM_P1;HPM_P2
2023/10/31 00:00:04;;;;;;;4.18;1.90;;;;;;;;;;10290184;28;20589;-65
2023/10/31 00:05:03;;;;;;;13.95;2.35;;;;;;;;;;10289967;28;20091;-64
2023/10/31 00:10:02;;;;;;;3.83;1.95;;;;;;;;;;10290045;28;20073;-65
2023/10/31 00:15:00;;;;;;;7.40;2.63;;;;;;;;;;10287562;28;20056;-66
2023/10/31 00:20:02;;;;;;;3.63;2.30;;;;;;;;;;10285137;28;20095;-65
2023/10/31 00:25:01;;;;;;;2.47;1.45;;;;;;;;;;10284495;28;20076;-64
2023/10/31 00:29:59;;;;;;;3.83;2.53;;;;;;;;;;10288910;28;20072;-65
2023/10/31 00:34:58;;;;;;;6.68;2.63;;;;;;;;;;10289804;28;20047;-65
2023/10/31 00:39:56;;;;;;;4.22;2.80;;;;;;;;;;10288563;28;20518;-65
2023/10/31 00:44:55;;;;;;;4.38;2.15;;;;;;;;;;10289656;28;20111;-65
2023/10/31 00:49:54;;;;;;;4.35;2.35;;;;;;;;;;10285189;28;20080;-65
2023/10/31 00:54:52;;;;;;;3.40;1.90;;;;;;;;;;10295269;28;20052;-66
2023/10/31 00:59:50;;;;;;;4.07;1.73;;;;;;;;;;10288087;28;20076;-65
2023/10/31 01:04:50;;;;;;;5.65;1.92;;;;;;;;;;10288125;28;20060;-65
2023/10/31 01:09:48;;;;;;;3.50;1.83;;;;;;;;;;10289415;28;20086;-65
2023/10/31 01:14:46;;;;;;;5.47;2.03;;;;;;;;;;10287351;28;20076;-65
2023/10/31 01:19:44;;;;;;;5.57;2.03;;;;;;;;;;10294420;28;20060;-65
2023/10/31 01:24:44;;;;;;;2.60;1.90;;;;;;;;;;10288496;28;20067;-65
2023/10/31 01:29:42;;;;;;;4.40;1.98;;;;;;;;;;10295992;28;20528;-65
2023/10/31 01:34:40;;;;;;;7.13;2.45;;;;;;;;;;10290466;28;20041;-65
2023/10/31 01:39:39;;;;;;;4.05;2.17;;;;;;;;;;10295051;28;20078;-65
2023/10/31 01:44:38;;;;;;;6.03;2.45;;;;;;;;;;10293363;28;20083;-65
2023/10/31 01:49:37;;;;;;;5.95;1.98;;;;;;;;;;10295343;28;20056;-65
2023/10/31 01:54:35;;;;;;;4.15;1.83;;;;;;;;;;10294619;28;20068;-65
2023/10/31 01:59:33;;;;;;;3.78;2.25;;;;;;;;;;10294163;28;20069;-65
2023/10/31 02:04:33;;;;;;;3.30;2.03;;;;;;;;;;10300824;28;20108;-66
2023/10/31 02:09:31;;;;;;;3.40;2.00;;;;;;;;;;10295117;28;20603;-65
2023/10/31 02:14:29;;;;;;;2.72;1.75;;;;;;;;;;10293073;28;20071;-65
2023/10/31 02:19:27;;;;;;;6.60;2.13;;;;;;;;;;10299875;28;21014;-65
2023/10/31 02:24:27;;;;;;;2.55;1.73;;;;;;;;;;10291289;28;20079;-65
2023/10/31 02:29:25;;;;;;;3.17;2.35;;;;;;;;;;10290756;28;20087;-67
2023/10/31 02:34:26;;;;;;;3.58;2.03;;;;;;;;;;10293743;28;20081;-65
2023/10/31 02:39:24;;;;;;;2.72;1.90;;;;;;;;;;10292675;28;20075;-65
2023/10/31 02:44:24;;;;;;;6.88;2.50;;;;;;;;;;10302711;28;20079;-65
2023/10/31 02:49:22;;;;;;;2.58;1.83;;;;;;;;;;10287776;28;20502;-65
2023/10/31 02:54:20;;;;;;;5.50;2.85;;;;;;;;;;10291679;28;20037;-66
2023/10/31 02:59:18;;;;;;;4.43;2.38;;;;;;;;;;10292932;28;20535;-66
2023/10/31 03:04:18;;;;;;;3.92;1.90;;;;;;;;;;10291582;28;20091;-65
2023/10/31 03:09:16;;;;;;;4.50;3.55;;;;;;;;;;10287275;28;20061;-66
2023/10/31 03:14:14;;;;;;;5.85;3.05;;;;;;;;;;10290881;28;20071;-65
2023/10/31 03:19:12;;;;;;;5.82;2.50;;;;;;;;;;10291269;28;20625;-65
2023/10/31 03:24:12;;;;;;;2.80;1.92;;;;;;;;;;10291079;28;20490;-65
2023/10/31 03:29:10;;;;;;;4.32;2.10;;;;;;;;;;10290863;28;20060;-65
2023/10/31 03:34:09;;;;;;;5.90;2.30;;;;;;;;;;10291044;28;20183;-65
2023/10/31 03:39:08;;;;;;;6.57;2.63;;;;;;;;;;10290666;28;20466;-65
2023/10/31 03:44:07;;;;;;;3.38;1.80;;;;;;;;;;10291149;28;20106;-67
2023/10/31 03:49:07;;;;;;;5.45;2.70;;;;;;;;;;10289394;28;20079;-65
2023/10/31 03:54:05;;;;;;;5.57;2.47;;;;;;;;;;10290285;28;20069;-65
2023/10/31 03:59:04;;;;;;;4.15;2.28;;;;;;;;;;10284036;28;20079;-66
2023/10/31 04:04:03;;;;;;;3.92;3.17;;;;;;;;;;10290646;28;20434;-65
2023/10/31 04:09:01;;;;;;;8.50;3.28;;;;;;;;;;10288736;28;20443;-64
2023/10/31 04:14:00;;;;;;;6.90;3.03;;;;;;;;;;10289090;28;20068;-64
2023/10/31 04:18:58;;;;;;;4.80;3.25;;;;;;;;;;10289395;28;20068;-65
2023/10/31 04:23:58;;;;;;;7.38;3.70;;;;;;;;;;10289411;28;20087;-65
2023/10/31 04:28:56;;;;;;;6.55;3.72;;;;;;;;;;10287715;28;20068;-65
2023/10/31 04:33:54;;;;;;;4.95;2.83;;;;;;;;;;10288006;28;20088;-65
2023/10/31 04:38:53;;;;;;;6.43;3.22;;;;;;;;;;10289202;28;20072;-64
2023/10/31 04:43:52;;;;;;;13.57;2.88;;;;;;;;;;10289315;28;20115;-65
2023/10/31 04:48:51;;;;;;;5.75;4.07;;;;;;;;;;10288330;28;20087;-64
2023/10/31 04:53:49;;;;;;;5.80;3.00;;;;;;;;;;10288094;28;20088;-65
2023/10/31 04:58:47;;;;;;;4.05;2.75;;;;;;;;;;10288104;28;20491;-64
2023/10/31 05:03:47;;;;;;;7.00;3.13;;;;;;;;;;10295130;28;20454;-65
2023/10/31 05:08:55;;;;;;;4.03;2.70;;;;;;;;;;10295481;28;20071;-65
2023/10/31 05:13:54;;;;;;;3.83;2.10;;;;;;;;;;10296244;28;20068;-65
2023/10/31 05:18:54;;;;;;;5.15;2.35;;;;;;;;;;10295308;28;20084;-65
2023/10/31 05:23:52;;;;;;;5.63;3.25;;;;;;;;;;10292341;28;20077;-65
2023/10/31 05:28:50;;;;;;;4.28;2.65;;;;;;;;;;10295302;28;20076;-66
2023/10/31 05:33:48;;;;;;;6.85;3.70;;;;;;;;;;10294696;28;20130;-67
2023/10/31 05:38:48;;;;;;;3.35;2.70;;;;;;;;;;10292932;28;20067;-65
2023/10/31 05:43:46;;;;;;;5.28;2.90;;;;;;;;;;10291442;28;20064;-66
2023/10/31 05:48:45;;;;;;;9.60;5.75;;;;;;;;;;10294254;28;20068;-66
2023/10/31 05:53:44;;;;;;;6.07;2.90;;;;;;;;;;10293046;28;20085;-66
2023/10/31 05:58:44;;;;;;;6.88;2.90;;;;;;;;;;10294753;28;20072;-65
2023/10/31 06:03:44;;;;;;;5.35;2.92;;;;;;;;;;10294217;28;20115;-65
2023/10/31 06:08:42;;;;;;;7.45;2.95;;;;;;;;;;10290492;28;20494;-66
2023/10/31 06:13:41;;;;;;;9.20;3.50;;;;;;;;;;10288237;28;20118;-66
2023/10/31 06:18:41;;;;;;;8.75;3.72;;;;;;;;;;10292033;28;20085;-65
2023/10/31 06:23:39;;;;;;;6.00;3.70;;;;;;;;;;10292105;28;20474;-65
2023/10/31 06:28:39;;;;;;;8.50;3.63;;;;;;;;;;10294473;28;20072;-65
2023/10/31 06:33:51;;;;;;;6.63;3.75;;;;;;;;;;10292488;28;20072;-64
2023/10/31 06:38:49;;;;;;;6.43;3.33;;;;;;;;;;10293709;28;20067;-65
2023/10/31 06:43:47;;;;;;;5.90;3.03;;;;;;;;;;10290094;28;20080;-64
2023/10/31 06:48:45;;;;;;;5.80;2.42;;;;;;;;;;10291751;28;20071;-65
2023/10/31 06:53:45;;;;;;;8.40;2.58;;;;;;;;;;10290272;28;20073;-64
2023/10/31 06:58:43;;;;;;;4.20;2.40;;;;;;;;;;10289884;28;20076;-64
2023/10/31 07:03:41;;;;;;;4.00;2.63;;;;;;;;;;10288216;28;20071;-65
2023/10/31 07:08:40;;;;;;;4.20;2.38;;;;;;;;;;10287552;28;20076;-65
2023/10/31 07:13:39;;;;;;;3.45;2.20;;;;;;;;;;10278636;28;20072;-65
2023/10/31 07:18:37;;;;;;;4.03;2.90;;;;;;;;;;10280573;28;20493;-64
2023/10/31 07:23:36;;;;;;;18.90;7.10;;;;;;;;;;10279293;28;20083;-65
2023/10/31 07:28:35;;;;;;;19.85;7.47;;;;;;;;;;10286114;28;20454;-65
2023/10/31 07:33:35;;;;;;;16.15;7.90;;;;;;;;;;10289622;28;20076;-65
2023/10/31 07:38:34;;;;;;;21.95;8.35;;;;;;;;;;10286964;28;20065;-65
2023/10/31 07:43:32;;;;;;;10.20;6.03;;;;;;;;;;10285132;28;20089;-65
2023/10/31 07:48:37;;;;;;;16.75;5.80;;;;;;;;;;10284532;28;20073;-64
2023/10/31 07:53:35;;;;;;;14.73;5.55;;;;;;;;;;10278406;28;20544;-65
2023/10/31 07:58:33;;;;;;;17.23;5.18;;;;;;;;;;10287548;28;20098;-65
2023/10/31 08:03:31;;;;;;;17.70;6.07;;;;;;;;;;10286067;28;20162;-65
2023/10/31 08:08:31;;;;;;;13.05;5.38;;;;;;;;;;10284572;28;20106;-64
2023/10/31 08:13:30;;;;;;;17.98;7.38;;;;;;;;;;10285919;28;20088;-64
2023/10/31 08:18:28;;;;;;;30.60;11.48;;;;;;;;;;10284733;28;20084;-64
2023/10/31 08:23:31;;;;;;;13.07;6.45;;;;;;;;;;10287859;28;20075;-65
2023/10/31 08:28:30;;;;;;;7.57;4.07;;;;;;;;;;10279140;28;20068;-63
2023/10/31 08:33:29;;;;;;;4.20;2.95;;;;;;;;;;10283316;28;20060;-65
2023/10/31 08:38:28;;;;;;;8.65;3.33;;;;;;;;;;10286894;28;20541;-65
2023/10/31 08:43:31;;;;;;;5.53;2.88;;;;;;;;;;10294924;28;20169;-64
2023/10/31 08:48:29;;;;;;;5.97;3.20;;;;;;;;;;10288407;28;20076;-64
2023/10/31 08:53:27;;;;;;;6.38;2.55;;;;;;;;;;10289884;28;20091;-65
2023/10/31 08:58:26;;;;;;;5.22;2.65;;;;;;;;;;10290005;28;20077;-65
2023/10/31 09:03:25;;;;;;;7.53;3.25;;;;;;;;;;10291632;28;20068;-63
2023/10/31 09:08:24;;;;;;;2.80;2.40;;;;;;;;;;10296552;28;20068;-64
2023/10/31 09:13:22;;;;;;;15.38;4.35;;;;;;;;;;10286369;28;20071;-64
2023/10/31 09:18:20;;;;;;;10.18;3.72;;;;;;;;;;10284163;28;20080;-65
2023/10/31 09:23:22;;;;;;;4.40;2.90;;;;;;;;;;10291696;28;20340;-64
2023/10/31 09:28:20;;;;;;;11.90;3.60;;;;;;;;;;10292599;28;20612;-65
2023/10/31 09:33:19;;;;;;;5.20;3.28;;;;;;;;;;10290760;28;20068;-65
2023/10/31 09:38:17;;;;;;;6.40;3.17;;;;;;;;;;10295470;28;20087;-65
2023/10/31 09:43:20;;;;;;;8.85;3.58;;;;;;;;;;10291696;28;20076;-65
2023/10/31 09:48:19;;;;;;;8.38;3.38;;;;;;;;;;10291333;28;20521;-66
2023/10/31 09:53:17;;;;;;;11.90;3.60;;;;;;;;;;10294265;28;20075;-65
2023/10/31 09:58:17;;;;;;;6.65;3.00;;;;;;;;;;10295339;28;20083;-65
2023/10/31 10:03:15;;;;;;;7.93;2.88;;;;;;;;;;10293981;28;20072;-65
2023/10/31 10:08:15;;;;;;;6.35;3.10;;;;;;;;;;10293372;28;20084;-65
2023/10/31 10:13:14;;;;;;;14.65;3.67;;;;;;;;;;10294299;28;20102;-65
2023/10/31 10:18:24;;;;;;;7.63;3.65;;;;;;;;;;10294013;28;20068;-65
2023/10/31 10:23:23;;;;;;;8.30;3.53;;;;;;;;;;10294913;28;20089;-64
2023/10/31 10:28:21;;;;;;;9.00;3.80;;;;;;;;;;10289242;28;20068;-64
2023/10/31 10:33:21;;;;;;;9.68;4.15;;;;;;;;;;10292983;28;20064;-65
2023/10/31 10:38:20;;;;;;;5.97;3.33;;;;;;;;;;10293381;28;20151;-65
2023/10/31 10:43:21;;;;;;;6.00;3.72;;;;;;;;;;10292752;28;20072;-64
2023/10/31 10:48:21;;;;;;;9.10;3.65;;;;;;;;;;10292846;28;20072;-65
2023/10/31 10:53:25;;;;;;;8.98;3.70;;;;;;;;;;10294533;28;20068;-65
2023/10/31 10:58:27;;;;;;;6.55;3.58;;;;;;;;;;10291058;28;20079;-65
2023/10/31 11:03:27;;;;;;;10.32;3.63;;;;;;;;;;10292946;28;20075;-64
2023/10/31 11:08:25;;;;;;;5.03;2.95;;;;;;;;;;10292676;28;20064;-65
2023/10/31 11:13:24;;;;;;;7.78;3.67;;;;;;;;;;10291927;28;20425;-65
2023/10/31 11:18:27;;;;;;;8.70;3.70;;;;;;;;;;10291960;28;20534;-65
2023/10/31 11:23:28;;;;;;;5.53;2.50;;;;;;;;;;10286312;28;20076;-65
2023/10/31 11:28:26;;;;;;;6.90;3.22;;;;;;;;;;10292488;28;20071;-65
2023/10/31 11:33:24;;;;;;;5.47;3.35;;;;;;;;;;10291208;28;20073;-65
2023/10/31 11:38:32;;;;;;;5.95;3.20;;;;;;;;;;10290785;28;20064;-66
2023/10/31 11:43:52;;;;;;;6.93;2.85;;;;;;;;;;10288671;28;20068;-65
2023/10/31 11:48:51;;;;;;;10.77;3.08;;;;;;;;;;10286998;28;20466;-65
2023/10/31 11:53:51;;;;;;;14.90;3.38;;;;;;;;;;10288041;28;20099;-65
2023/10/31 11:58:56;;;;;;;8.07;3.22;;;;;;;;;;10292685;28;20075;-65
2023/10/31 12:03:57;;;;;;;6.70;3.40;;;;;;;;;;10292531;28;20080;-65
2023/10/31 12:09:00;;;;;;;6.47;2.95;;;;;;;;;;10285040;28;20106;-65
2023/10/31 12:14:00;;;;;;;10.88;3.35;;;;;;;;;;10288889;28;20091;-64
2023/10/31 12:18:59;;;;;;;23.95;4.22;;;;;;;;;;10290628;28;20076;-64
2023/10/31 12:24:04;;;;;;;5.97;3.38;;;;;;;;;;10290806;28;20065;-65
2023/10/31 12:29:12;;;;;;;6.28;2.88;;;;;;;;;;10286523;28;20079;-65
2023/10/31 12:34:11;;;;;;;6.60;3.08;;;;;;;;;;10288302;28;20068;-65
2023/10/31 12:39:11;;;;;;;5.53;2.78;;;;;;;;;;10291055;28;20067;-65
2023/10/31 12:44:10;;;;;;;6.95;2.65;;;;;;;;;;10289371;28;20071;-65
2023/10/31 12:49:12;;;;;;;5.55;3.13;;;;;;;;;;10290972;28;20462;-65
2023/10/31 12:54:11;;;;;;;7.32;2.53;;;;;;;;;;10290694;28;20080;-66
2023/10/31 12:59:11;;;;;;;9.10;3.60;;;;;;;;;;10288015;28;20075;-65
2023/10/31 13:04:11;;;;;;;5.53;3.72;;;;;;;;;;10290326;28;20060;-65
2023/10/31 13:09:12;;;;;;;9.98;3.65;;;;;;;;;;10289297;28;20077;-64
2023/10/31 13:14:13;;;;;;;7.68;4.43;;;;;;;;;;10289305;28;20084;-65
2023/10/31 13:19:11;;;;;;;9.43;3.10;;;;;;;;;;10290760;28;20080;-65
2023/10/31 13:24:10;;;;;;;8.23;3.10;;;;;;;;;;10294704;28;20079;-64
2023/10/31 13:29:08;;;;;;;13.65;3.33;;;;;;;;;;10296314;28;20068;-64
2023/10/31 13:34:08;;;;;;;4.63;3.22;;;;;;;;;;10296512;28;20067;-65
2023/10/31 13:39:06;;;;;;;13.18;3.38;;;;;;;;;;10296779;28;20084;-64
2023/10/31 13:44:05;;;;;;;12.80;3.15;;;;;;;;;;10295390;28;20501;-65
2023/10/31 13:49:08;;;;;;;5.20;2.78;;;;;;;;;;10295218;28;20088;-64
2023/10/31 13:54:06;;;;;;;13.18;4.50;;;;;;;;;;10296272;28;20118;-64
2023/10/31 13:59:04;;;;;;;15.75;3.80;;;;;;;;;;10294242;28;20104;-64
2023/10/31 14:04:05;;;;;;;11.98;3.72;;;;;;;;;;10295443;28;20073;-64
2023/10/31 14:09:06;;;;;;;15.52;5.70;;;;;;;;;;10293886;28;20490;-64
2023/10/31 14:14:08;;;;;;;14.27;4.47;;;;;;;;;;10293999;28;20072;-64
2023/10/31 14:19:08;;;;;;;14.50;4.35;;;;;;;;;;10293824;28;20756;-65
2023/10/31 14:24:09;;;;;;;13.00;5.10;;;;;;;;;;10294170;28;20095;-64
2023/10/31 14:29:11;;;;;;;12.55;4.63;;;;;;;;;;10293373;28;20072;-64
2023/10/31 14:34:10;;;;;;;9.80;4.10;;;;;;;;;;10293568;28;20072;-64
2023/10/31 14:39:11;;;;;;;9.05;4.40;;;;;;;;;;10293252;28;20072;-64
2023/10/31 14:44:10;;;;;;;16.35;4.32;;;;;;;;;;10292232;28;20063;-64
2023/10/31 14:49:08;;;;;;;14.35;4.07;;;;;;;;;;10294075;28;20186;-64
2023/10/31 14:54:06;;;;;;;11.00;4.70;;;;;;;;;;10292249;28;20072;-65
2023/10/31 14:59:06;;;;;;;16.52;4.78;;;;;;;;;;10293795;28;20501;-65
2023/10/31 15:04:05;;;;;;;9.30;4.35;;;;;;;;;;10287605;28;20459;-65
2023/10/31 15:09:03;;;;;;;13.82;5.18;;;;;;;;;;10291372;28;20510;-64
2023/10/31 15:14:02;;;;;;;10.93;4.93;;;;;;;;;;10291674;28;20083;-64
2023/10/31 15:19:02;;;;;;;11.82;5.07;;;;;;;;;;10289557;28;20084;-64
2023/10/31 15:24:00;;;;;;;18.55;5.20;;;;;;;;;;10291964;28;20517;-64
2023/10/31 15:28:58;;;;;;;12.25;4.40;;;;;;;;;;10290274;28;20072;-64
2023/10/31 15:33:56;;;;;;;11.15;6.95;;;;;;;;;;10289045;28;20483;-65
2023/10/31 15:38:56;;;;;;;24.17;11.23;;;;;;;;;;10288460;28;20084;-64
2023/10/31 15:43:54;;;;;;;22.13;11.35;;;;;;;;;;10285667;28;20080;-65
2023/10/31 15:48:52;;;;;;;12.93;6.30;;;;;;;;;;10289314;28;20080;-65
2023/10/31 15:53:51;;;;;;;13.80;5.15;;;;;;;;;;10282845;28;20073;-65
2023/10/31 15:58:50;;;;;;;9.45;5.57;;;;;;;;;;10288346;28;20087;-64
2023/10/31 16:03:48;;;;;;;14.95;4.30;;;;;;;;;;10289205;28;20075;-62
2023/10/31 16:08:47;;;;;;;8.95;4.43;;;;;;;;;;10290355;28;20481;-64
2023/10/31 16:13:45;;;;;;;12.45;5.05;;;;;;;;;;10287896;28;20064;-65
2023/10/31 16:18:45;;;;;;;20.17;5.57;;;;;;;;;;10286685;28;20099;-64
2023/10/31 16:23:47;;;;;;;14.38;5.05;;;;;;;;;;10284530;28;20087;-64
2023/10/31 16:28:47;;;;;;;13.82;5.70;;;;;;;;;;10288849;28;20076;-65
2023/10/31 16:33:47;;;;;;;10.38;4.68;;;;;;;;;;10289070;28;20064;-65
2023/10/31 16:38:45;;;;;;;10.93;4.95;;;;;;;;;;10285817;28;20499;-65
2023/10/31 16:43:43;;;;;;;13.50;5.40;;;;;;;;;;10286191;28;20087;-65
2023/10/31 16:48:42;;;;;;;18.90;10.20;;;;;;;;;;10286712;28;20061;-65
2023/10/31 16:53:42;;;;;;;48.00;33.10;;;;;;;;;;10283886;28;20073;-64
2023/10/31 16:58:40;;;;;;;17.95;8.50;;;;;;;;;;10289551;28;20066;-65
2023/10/31 17:03:39;;;;;;;22.83;7.93;;;;;;;;;;10291774;28;20076;-65
2023/10/31 17:08:37;;;;;;;23.85;12.77;;;;;;;;;;10295145;28;20201;-65
2023/10/31 17:13:37;;;;;;;16.88;11.55;;;;;;;;;;10287497;28;20056;-65
2023/10/31 17:18:35;;;;;;;45.38;27.08;;;;;;;;;;10293935;28;20091;-65
2023/10/31 17:23:34;;;;;;;61.38;42.63;;;;;;;;;;10291985;28;20083;-65
2023/10/31 17:28:38;;;;;;;18.75;8.68;;;;;;;;;;10289289;28;20064;-65
2023/10/31 17:33:39;;;;;;;14.15;6.20;;;;;;;;;;10286959;28;20070;-65
2023/10/31 17:38:38;;;;;;;11.43;4.75;;;;;;;;;;10292644;28;20091;-65
2023/10/31 17:43:37;;;;;;;9.73;4.13;;;;;;;;;;10289745;28;20072;-66
2023/10/31 17:48:36;;;;;;;8.30;4.20;;;;;;;;;;10292492;28;20070;-65
2023/10/31 17:53:37;;;;;;;8.98;3.92;;;;;;;;;;10295264;28;20127;-64
2023/10/31 17:58:35;;;;;;;13.48;4.35;;;;;;;;;;10285378;28;20494;-65
2023/10/31 18:03:34;;;;;;;8.90;3.55;;;;;;;;;;10283224;28;20083;-65
2023/10/31 18:08:32;;;;;;;11.35;4.38;;;;;;;;;;10289804;28;20076;-65
2023/10/31 18:13:32;;;;;;;6.40;4.22;;;;;;;;;;10284624;28;20076;-65
2023/10/31 18:18:30;;;;;;;8.30;4.30;;;;;;;;;;10288689;28;20091;-64
2023/10/31 18:23:29;;;;;;;7.50;4.32;;;;;;;;;;10289325;28;20065;-64
2023/10/31 18:28:27;;;;;;;10.50;3.25;;;;;;;;;;10294360;28;20124;-64
2023/10/31 18:33:27;;;;;;;6.13;3.13;;;;;;;;;;10293577;28;20064;-65
2023/10/31 18:38:25;;;;;;;3.92;2.90;;;;;;;;;;10291018;28;20482;-65
2023/10/31 18:43:23;;;;;;;5.35;2.70;;;;;;;;;;10287333;28;20524;-65
2023/10/31 18:48:21;;;;;;;5.50;2.53;;;;;;;;;;10287726;28;20064;-65
2023/10/31 18:53:21;;;;;;;2.78;2.35;;;;;;;;;;10279617;28;20471;-65
2023/10/31 18:58:19;;;;;;;4.60;2.40;;;;;;;;;;10288598;28;20080;-65
2023/10/31 19:03:17;;;;;;;5.53;3.00;;;;;;;;;;10287742;28;20545;-64
2023/10/31 19:08:16;;;;;;;4.47;2.55;;;;;;;;;;10280843;28;20080;-65
2023/10/31 19:13:17;;;;;;;6.45;2.78;;;;;;;;;;10287366;28;20060;-65
2023/10/31 19:18:15;;;;;;;5.40;2.72;;;;;;;;;;10288483;28;20084;-65
2023/10/31 19:23:14;;;;;;;5.53;2.78;;;;;;;;;;10281524;28;20071;-64
2023/10/31 19:28:12;;;;;;;3.90;2.60;;;;;;;;;;10290459;28;20139;-66
2023/10/31 19:33:12;;;;;;;4.38;3.22;;;;;;;;;;10292493;28;20069;-65
2023/10/31 19:38:10;;;;;;;11.35;3.20;;;;;;;;;;10282511;28;20079;-65
2023/10/31 19:43:09;;;;;;;10.32;3.28;;;;;;;;;;10286338;28;20079;-65
2023/10/31 19:48:08;;;;;;;3.65;3.10;;;;;;;;;;10287408;28;20353;-65
2023/10/31 19:53:07;;;;;;;3.38;2.80;;;;;;;;;;10289357;28;20514;-65
2023/10/31 19:58:06;;;;;;;6.40;3.63;;;;;;;;;;10285082;28;20080;-64
2023/10/31 20:03:04;;;;;;;5.95;3.67;;;;;;;;;;10287388;28;20071;-64
2023/10/31 20:08:03;;;;;;;6.18;2.83;;;;;;;;;;10286732;28;20069;-64
2023/10/31 20:13:02;;;;;;;4.57;3.17;;;;;;;;;;10282081;28;20084;-65
2023/10/31 20:18:01;;;;;;;8.60;3.78;;;;;;;;;;10290461;28;20110;-65
2023/10/31 20:22:59;;;;;;;5.00;3.53;;;;;;;;;;10281107;28;20076;-65
2023/10/31 20:27:58;;;;;;;4.45;3.28;;;;;;;;;;10288111;28;20072;-65
2023/10/31 20:32:58;;;;;;;6.90;3.72;;;;;;;;;;10283736;28;20076;-65
2023/10/31 20:37:59;;;;;;;7.00;3.33;;;;;;;;;;10289574;28;20095;-65
2023/10/31 20:42:57;;;;;;;7.80;3.47;;;;;;;;;;10280237;28;20704;-64
2023/10/31 20:48:00;;;;;;;7.18;3.38;;;;;;;;;;10288665;28;20087;-65
2023/10/31 20:53:00;;;;;;;7.75;4.03;;;;;;;;;;10285052;28;20076;-65
2023/10/31 20:57:59;;;;;;;7.55;3.90;;;;;;;;;;10281024;28;20056;-64
2023/10/31 21:03:03;;;;;;;8.20;3.80;;;;;;;;;;10273173;28;20091;-65
2023/10/31 21:08:04;;;;;;;11.38;5.28;;;;;;;;;;10274829;28;20077;-65
2023/10/31 21:13:02;;;;;;;7.38;4.97;;;;;;;;;;10279660;28;20080;-64
2023/10/31 21:18:00;;;;;;;8.48;4.88;;;;;;;;;;10284880;28;20085;-65
2023/10/31 21:22:59;;;;;;;16.38;5.85;;;;;;;;;;10292113;28;20077;-65
2023/10/31 21:27:58;;;;;;;8.15;4.50;;;;;;;;;;10282424;28;20525;-63
2023/10/31 21:32:57;;;;;;;7.55;4.25;;;;;;;;;;10282445;28;20087;-63
2023/10/31 21:37:55;;;;;;;7.00;4.32;;;;;;;;;;10289550;28;20072;-64
2023/10/31 21:42:55;;;;;;;5.90;4.10;;;;;;;;;;10288432;28;20080;-63
2023/10/31 21:47:55;;;;;;;8.23;5.20;;;;;;;;;;10296592;28;20082;-65
2023/10/31 21:52:53;;;;;;;5.78;4.45;;;;;;;;;;10289568;28;20076;-64
2023/10/31 21:57:53;;;;;;;6.75;4.65;;;;;;;;;;10296186;28;20076;-65
2023/10/31 22:02:51;;;;;;;4.65;3.47;;;;;;;;;;10293716;28;20081;-66
2023/10/31 22:07:51;;;;;;;5.15;3.83;;;;;;;;;;10292890;28;20518;-65
2023/10/31 22:12:53;;;;;;;6.88;4.38;;;;;;;;;;10294973;28;20072;-65
2023/10/31 22:17:51;;;;;;;7.07;3.95;;;;;;;;;;10293980;28;20467;-64
2023/10/31 22:22:51;;;;;;;7.10;4.25;;;;;;;;;;10293671;28;20075;-64
2023/10/31 22:27:49;;;;;;;7.88;4.35;;;;;;;;;;10290211;28;20068;-64
2023/10/31 22:32:48;;;;;;;7.38;4.75;;;;;;;;;;10294353;28;20091;-65
2023/10/31 22:37:46;;;;;;;6.22;3.80;;;;;;;;;;10293707;28;20076;-65
2023/10/31 22:42:46;;;;;;;8.23;4.40;;;;;;;;;;10293684;28;20091;-66
2023/10/31 22:47:45;;;;;;;8.32;3.88;;;;;;;;;;10292532;28;20076;-66
2023/10/31 22:52:43;;;;;;;7.20;4.22;;;;;;;;;;10292142;28;20474;-65
2023/10/31 22:57:41;;;;;;;8.70;4.20;;;;;;;;;;10292660;28;20070;-64
2023/10/31 23:02:41;;;;;;;11.77;4.25;;;;;;;;;;10292129;28;20076;-65
2023/10/31 23:07:40;;;;;;;6.68;4.38;;;;;;;;;;10289223;28;20072;-66
2023/10/31 23:12:39;;;;;;;5.20;3.60;;;;;;;;;;10288131;28;20091;-66
2023/10/31 23:17:37;;;;;;;4.78;4.10;;;;;;;;;;10291850;28;20072;-65
2023/10/31 23:22:37;;;;;;;7.05;3.75;;;;;;;;;;10290621;28;20064;-64
2023/10/31 23:27:36;;;;;;;8.75;4.30;;;;;;;;;;10291901;28;20079;-65
2023/10/31 23:32:35;;;;;;;9.02;4.68;;;;;;;;;;10292272;28;20084;-65
2023/10/31 23:37:33;;;;;;;7.63;4.18;;;;;;;;;;10290431;28;20490;-64
2023/10/31 23:42:33;;;;;;;12.07;5.82;;;;;;;;;;10292258;28;20642;-65
2023/10/31 23:47:31;;;;;;;11.50;6.93;;;;;;;;;;10291513;28;20072;-64
2023/10/31 23:52:29;;;;;;;13.80;7.20;;;;;;;;;;10290230;28;20080;-64
2023/10/31 23:57:28;;;;;;;10.27;6.68;;;;;;;;;;10291380;28;20079;-64
